Middleton, WI

6:17 AM CDT on May 30, 2015 (GMT -0500)
Tri-County Regional | | Change Station
CLOSE
Current Station
Airport
Location: Lone Rock,
Elevation: 719 ft
Nearby Weather Stations

Elev 719 ft 43.21 °N, 90.18 °W | Updated 21 minutes ago

Mostly Cloudy
Mostly Cloudy
67 °F
Feels Like 67 °F
N
7
Wind Variable Wind from Variable

Today
High -- | Low -- °F
--% Chance of Precip.
Yesterday
High -- | Low -- °F
Precip. -- in
5:22 AM 8:29 PM
Waxing Gibbous, 89% visible
Pressure 29.91 in
Visibility 10.0 miles
Clouds Overcast 1200 ft
Dew Point 64 °F
Humidity 90%
Rainfall 0.20 in
Snow Depth Not available.
UV 0 out of 12
Pollen 3.80 out of 12
Air Quality Not available.
Flu Activity Sporadic
METAR KLNR 301056Z AUTO VRB06KT 10SM OVC012 19/18 A2993 RMK AO2 SLP126 T01940178

More Conditions Fewer Conditions

Pressure 29.91 in
Visibility 10.0 miles
Clouds Overcast 1200 ft
Dew Point 64 °F
Humidity 90%
Rainfall 0.20 in
Snow Depth Not available.
UV 0 out of 12
Pollen 3.80 out of 12
Air Quality Not available.
Flu Activity Sporadic
METAR KLNR 301056Z AUTO VRB06KT 10SM OVC012 19/18 A2993 RMK AO2 SLP126 T01940178

More Conditions Fewer Conditions

10-Day Weather Forecast

Almanac

Astronomy

May. 30, 2015 Rise Set
Actual Time
Civil Twilight
Nautical Twilight
Astronomical Twilight
Moon
Length of Visible Light
Length of Day
Tomorrow will be .
, % of the Moon is Illuminated

Today's Extremes

State Highs State Lows

Community

WunderPhotos

Upload Photos

1,825,481 photos uploaded!

WunderBlogs® & News

Nearby

Air Quality

  Air Quality AQ Index Pollutant
Not available.

Snow Depth

Station Depth Elevation

Earthquake Activity

City Distance Mag. Time & Date
Minimum magnitude displayed is 2.5.

Coastal Water Temperatures

Place Temperature

Stations

Nearby Weather Stations

Station Location Temp. Windchill Dew Point Humidity Wind Precip. Elev Updated Type